createdAt,value
2022-08-22T00:01:30.002Z,18.96
2022-08-22T00:02:44.823Z,23.00
2022-08-22T00:03:00.350Z,20.46
2022-08-22T00:04:11.916Z,18.93
2022-08-22T00:07:13.618Z,18.93
2022-08-22T00:09:43.084Z,18.89
2022-08-22T00:12:36.649Z,18.88
2022-08-22T00:15:31.606Z,18.86
2022-08-22T00:18:36.819Z,18.85
2022-08-22T00:21:29.658Z,18.84
2022-08-22T00:24:23.927Z,18.90
2022-08-22T00:27:26.898Z,18.89
2022-08-22T00:30:16.364Z,18.91
2022-08-22T00:32:45.853Z,18.92
2022-08-22T00:35:41.644Z,18.92
2022-08-22T00:38:17.380Z,18.91
2022-08-22T00:41:03.821Z,18.90
2022-08-22T00:43:48.103Z,18.89
2022-08-22T00:46:37.775Z,18.86
2022-08-22T00:49:22.805Z,18.87
2022-08-22T00:51:54.588Z,18.86
2022-08-22T00:54:36.372Z,18.86
2022-08-22T00:57:08.673Z,18.86
2022-08-22T01:00:13.392Z,18.85
2022-08-22T01:03:04.195Z,18.84
2022-08-22T01:05:52.750Z,18.81
2022-08-22T01:08:42.434Z,18.81
2022-08-22T01:11:27.875Z,18.78
2022-08-22T01:14:15.750Z,18.75
2022-08-22T01:17:21.675Z,18.63
2022-08-22T01:20:25.704Z,18.62
2022-08-22T01:23:25.292Z,18.57
2022-08-22T01:26:13.435Z,18.54
2022-08-22T01:28:58.610Z,18.44
2022-08-22T01:32:02.427Z,18.42
2022-08-22T01:34:53.829Z,18.38
2022-08-22T01:37:26.117Z,18.36
2022-08-22T01:40:14.814Z,18.34
2022-08-22T01:42:59.565Z,18.32
2022-08-22T01:45:41.742Z,18.30
2022-08-22T01:48:16.934Z,18.27
2022-08-22T01:51:06.679Z,18.25
2022-08-22T01:54:01.077Z,18.21
2022-08-22T01:56:35.932Z,18.18
2022-08-22T01:59:10.943Z,18.21
2022-08-22T02:01:49.755Z,18.16
2022-08-22T02:04:31.235Z,18.12
2022-08-22T02:07:07.602Z,18.04
2022-08-22T02:09:52.234Z,18.03
2022-08-22T02:12:46.728Z,18.03
2022-08-22T02:15:45.483Z,18.02
2022-08-22T02:18:20.770Z,18.03
2022-08-22T02:21:17.041Z,18.06
2022-08-22T02:23:58.491Z,18.11
2022-08-22T02:26:50.276Z,18.14
2022-08-22T02:29:33.353Z,18.17
2022-08-22T02:32:16.341Z,18.17
2022-08-22T02:34:59.647Z,18.15
2022-08-22T02:37:49.937Z,18.19
2022-08-22T02:40:28.391Z,18.17
2022-08-22T02:43:29.311Z,18.16
2022-08-22T02:46:40.566Z,18.16
2022-08-22T02:49:09.865Z,18.14
2022-08-22T02:52:00.702Z,18.14
2022-08-22T02:54:43.145Z,18.11
2022-08-22T02:57:19.069Z,18.17
2022-08-22T03:00:31.161Z,18.19
2022-08-22T03:03:03.860Z,18.23
2022-08-22T03:05:36.566Z,18.24
2022-08-22T03:08:12.975Z,18.25
2022-08-22T03:10:45.949Z,18.21
2022-08-22T03:13:25.313Z,18.25
2022-08-22T03:16:00.629Z,18.27
2022-08-22T03:18:43.570Z,18.25
2022-08-22T03:21:47.420Z,18.22
2022-08-22T03:24:24.321Z,18.18
2022-08-22T03:27:23.251Z,18.04
2022-08-22T03:30:12.346Z,17.89
2022-08-22T03:32:50.658Z,17.82
2022-08-22T03:35:31.102Z,17.77
2022-08-22T03:38:14.610Z,17.79
2022-08-22T03:40:56.366Z,17.81
2022-08-22T03:44:20.056Z,17.80
2022-08-22T03:47:08.062Z,17.81
2022-08-22T03:49:59.721Z,17.83
2022-08-22T03:53:15.412Z,17.82
2022-08-22T03:56:10.521Z,17.82
2022-08-22T03:58:53.077Z,17.84
2022-08-22T04:01:31.383Z,17.82
2022-08-22T04:04:19.212Z,17.79
2022-08-22T04:06:58.606Z,17.73
2022-08-22T04:09:25.147Z,17.63
2022-08-22T04:11:55.883Z,17.60
2022-08-22T04:14:44.740Z,17.53
2022-08-22T04:17:26.140Z,17.51
2022-08-22T04:20:21.199Z,17.47
2022-08-22T04:22:53.755Z,17.44
2022-08-22T04:25:31.039Z,17.42
2022-08-22T04:28:11.517Z,17.41
2022-08-22T04:30:48.949Z,17.40
2022-08-22T04:33:33.334Z,17.40
2022-08-22T04:36:02.940Z,17.48
2022-08-22T04:38:58.453Z,17.53
2022-08-22T04:41:38.086Z,17.59
2022-08-22T04:44:13.711Z,17.61
2022-08-22T04:47:17.357Z,17.65
2022-08-22T04:49:52.657Z,17.67
2022-08-22T04:52:46.565Z,17.67
2022-08-22T04:55:39.700Z,17.67
2022-08-22T04:58:19.564Z,17.66
2022-08-22T05:00:56.552Z,17.68
2022-08-22T05:03:28.766Z,17.70
2022-08-22T05:05:59.972Z,17.72
2022-08-22T05:08:32.586Z,17.70
2022-08-22T05:11:02.823Z,17.77
2022-08-22T05:13:34.439Z,17.77
2022-08-22T05:16:06.022Z,17.82
2022-08-22T05:18:45.317Z,17.83
2022-08-22T05:21:13.939Z,17.83
2022-08-22T05:23:53.515Z,17.84
2022-08-22T05:26:21.519Z,17.87
2022-08-22T05:28:57.408Z,17.92
2022-08-22T05:31:29.446Z,17.94
2022-08-22T05:34:13.666Z,17.99
2022-08-22T05:36:48.609Z,18.03
2022-08-22T05:39:20.506Z,18.04
2022-08-22T05:41:50.560Z,18.06
2022-08-22T05:44:23.473Z,18.04
2022-08-22T05:47:01.930Z,18.12
2022-08-22T05:49:40.306Z,18.18
2022-08-22T05:52:30.149Z,18.14
2022-08-22T05:55:26.392Z,18.18
2022-08-22T05:58:18.071Z,18.17
2022-08-22T06:00:48.945Z,18.18
2022-08-22T06:03:30.027Z,18.26
2022-08-22T06:05:59.837Z,18.28
2022-08-22T06:08:35.422Z,18.31
2022-08-22T06:11:11.687Z,18.33
2022-08-22T06:13:43.423Z,18.33
2022-08-22T06:16:28.854Z,18.30
2022-08-22T06:18:57.543Z,18.32
2022-08-22T06:21:39.339Z,18.44
2022-08-22T06:24:10.463Z,18.47
2022-08-22T06:26:46.082Z,18.51
2022-08-22T06:29:22.108Z,18.57
2022-08-22T06:31:51.589Z,18.62
2022-08-22T06:34:25.892Z,18.66
2022-08-22T06:36:56.231Z,18.74
2022-08-22T06:39:25.521Z,18.89
2022-08-22T06:42:12.220Z,18.88
2022-08-22T06:44:48.195Z,18.96
2022-08-22T06:47:20.791Z,19.03
2022-08-22T06:49:48.309Z,19.09
2022-08-22T06:52:24.522Z,19.14
2022-08-22T06:55:01.713Z,19.22
2022-08-22T06:57:45.404Z,19.30
2022-08-22T07:00:15.719Z,19.37
2022-08-22T07:02:51.673Z,19.53
2022-08-22T07:05:22.108Z,19.58
2022-08-22T07:07:52.995Z,19.60
2022-08-22T07:10:22.195Z,19.54
2022-08-22T07:12:54.020Z,19.71
2022-08-22T07:15:34.383Z,19.78
2022-08-22T07:18:05.790Z,19.85
2022-08-22T07:20:45.699Z,19.91
2022-08-22T07:23:25.004Z,19.98
2022-08-22T07:26:07.295Z,20.04
2022-08-22T07:28:58.413Z,20.16
2022-08-22T07:31:31.810Z,20.27
2022-08-22T07:34:33.769Z,20.24
2022-08-22T07:37:06.731Z,20.25
2022-08-22T07:39:40.180Z,20.21
2022-08-22T07:42:16.759Z,20.25
2022-08-22T07:44:49.438Z,20.25
2022-08-22T07:47:26.305Z,20.32
2022-08-22T07:49:58.113Z,20.41
2022-08-22T07:52:29.453Z,20.51
2022-08-22T07:55:17.688Z,20.67
2022-08-22T07:57:52.099Z,20.84
2022-08-22T08:00:21.302Z,21.08
2022-08-22T08:02:51.991Z,21.37
2022-08-22T08:05:22.246Z,21.68
2022-08-22T08:07:51.336Z,22.04
2022-08-22T08:10:25.718Z,22.52
2022-08-22T08:13:02.836Z,23.21
2022-08-22T08:15:32.221Z,24.90
2022-08-22T08:18:04.492Z,27.38
2022-08-22T08:20:34.441Z,29.45
2022-08-22T08:23:04.289Z,31.02
2022-08-22T08:25:33.871Z,30.17
2022-08-22T08:28:19.325Z,29.00
2022-08-22T08:30:53.664Z,31.23
2022-08-22T08:33:24.183Z,31.41
2022-08-22T08:36:02.390Z,30.87
2022-08-22T08:38:36.098Z,30.32
2022-08-22T08:41:22.771Z,31.98
2022-08-22T08:44:40.638Z,32.21
2022-08-22T08:47:43.417Z,28.62
2022-08-22T08:50:46.761Z,27.16
2022-08-22T08:53:34.740Z,26.79
2022-08-22T08:56:26.565Z,26.93
2022-08-22T08:59:28.880Z,26.99
2022-08-22T09:02:03.196Z,26.82
2022-08-22T09:05:07.250Z,27.06
2022-08-22T09:07:52.625Z,27.22
2022-08-22T09:10:31.954Z,27.46
2022-08-22T09:13:16.130Z,27.56
2022-08-22T09:16:04.721Z,27.51
2022-08-22T09:18:53.992Z,27.79
2022-08-22T09:21:42.462Z,27.59
2022-08-22T09:24:18.395Z,27.02
2022-08-22T09:27:01.227Z,26.78
2022-08-22T09:30:17.260Z,26.99
2022-08-22T09:33:13.289Z,27.33
2022-08-22T09:35:39.769Z,27.43
2022-08-22T09:38:24.977Z,27.46
2022-08-22T09:41:08.717Z,27.33
2022-08-22T09:44:14.723Z,27.08
2022-08-22T09:46:51.744Z,26.98
2022-08-22T09:49:36.064Z,27.11
2022-08-22T09:52:14.318Z,27.20
2022-08-22T09:54:53.863Z,26.99
2022-08-22T09:57:38.861Z,27.04
2022-08-22T10:00:05.390Z,27.10
2022-08-22T10:02:43.246Z,27.43
2022-08-22T10:05:40.380Z,27.96
2022-08-22T10:08:38.489Z,28.38
2022-08-22T10:11:22.939Z,28.55
2022-08-22T10:14:00.570Z,29.09
2022-08-22T10:16:51.751Z,28.82
2022-08-22T10:19:39.812Z,28.71
2022-08-22T10:22:35.920Z,29.06
2022-08-22T10:25:24.985Z,29.31
2022-08-22T10:28:06.774Z,29.13
2022-08-22T10:30:47.262Z,29.30
2022-08-22T10:33:39.689Z,29.13
2022-08-22T10:37:08.710Z,28.42
2022-08-22T10:40:07.837Z,28.47
2022-08-22T10:42:45.669Z,28.59
2022-08-22T10:45:35.862Z,28.98
2022-08-22T10:48:08.612Z,29.35
2022-08-22T10:50:44.847Z,29.12
2022-08-22T10:53:35.842Z,29.59
2022-08-22T10:56:21.514Z,29.98
2022-08-22T10:58:58.449Z,29.82
2022-08-22T11:01:37.793Z,29.16
2022-08-22T11:04:39.627Z,29.22
2022-08-22T11:07:18.318Z,29.27
2022-08-22T11:09:59.168Z,29.44
2022-08-22T11:12:45.568Z,29.64
2022-08-22T11:15:28.443Z,29.97
2022-08-22T11:18:28.100Z,30.41
2022-08-22T11:21:09.477Z,30.70
2022-08-22T11:23:51.317Z,30.76
2022-08-22T11:26:46.868Z,30.54
2022-08-22T11:29:29.413Z,30.85
2022-08-22T11:32:06.153Z,30.88
2022-08-22T11:35:01.117Z,31.05
2022-08-22T11:37:53.767Z,30.90
2022-08-22T11:40:35.048Z,30.94
2022-08-22T11:43:03.194Z,31.15
2022-08-22T11:45:43.197Z,31.23
2022-08-22T11:48:25.784Z,30.78
2022-08-22T11:51:34.510Z,30.55
2022-08-22T11:54:22.836Z,30.64
2022-08-22T11:57:16.057Z,30.55
2022-08-22T11:59:44.915Z,30.56
2022-08-22T12:02:49.169Z,30.66
2022-08-22T12:05:27.239Z,30.71
2022-08-22T12:08:21.208Z,30.75
2022-08-22T12:10:55.646Z,30.62
2022-08-22T12:13:52.499Z,30.19
2022-08-22T12:16:48.746Z,30.20
2022-08-22T12:20:12.889Z,30.35
2022-08-22T12:22:44.320Z,30.46
2022-08-22T12:25:55.672Z,30.60
2022-08-22T12:28:43.947Z,30.74
2022-08-22T12:31:17.935Z,30.67
2022-08-22T12:33:56.721Z,30.57
2022-08-22T12:36:40.744Z,30.56
2022-08-22T12:39:44.948Z,30.49
2022-08-22T12:42:48.898Z,30.63
2022-08-22T12:45:17.282Z,30.65
2022-08-22T12:48:14.085Z,30.63
2022-08-22T12:50:57.859Z,30.71
2022-08-22T12:53:28.380Z,30.56
2022-08-22T12:56:04.074Z,30.54
2022-08-22T12:59:01.949Z,30.61
2022-08-22T13:01:39.257Z,30.60
2022-08-22T13:04:29.760Z,30.57
2022-08-22T13:07:01.295Z,30.39
2022-08-22T13:09:34.230Z,29.87
2022-08-22T13:12:34.233Z,29.89
2022-08-22T13:15:28.542Z,29.65
2022-08-22T13:18:18.936Z,29.58
2022-08-22T13:20:52.621Z,29.45
2022-08-22T13:23:54.013Z,29.29
2022-08-22T13:26:33.777Z,29.08
2022-08-22T13:29:26.931Z,29.36
2022-08-22T13:32:02.145Z,29.71
2022-08-22T13:34:52.396Z,30.01
2022-08-22T13:37:26.867Z,30.24
2022-08-22T13:40:01.771Z,30.37
2022-08-22T13:42:33.229Z,30.43
2022-08-22T13:45:10.114Z,30.53
2022-08-22T13:47:48.952Z,30.63
2022-08-22T13:50:22.652Z,30.72
2022-08-22T13:53:05.078Z,30.68
2022-08-22T13:55:36.661Z,30.34
2022-08-22T13:58:07.736Z,30.00
2022-08-22T14:01:13.980Z,29.94
2022-08-22T14:03:58.223Z,29.81
2022-08-22T14:06:41.225Z,29.65
2022-08-22T14:09:39.119Z,29.57
2022-08-22T14:12:50.641Z,29.38
2022-08-22T14:15:32.120Z,29.48
2022-08-22T14:18:10.571Z,29.59
2022-08-22T14:20:41.058Z,29.65
2022-08-22T14:23:16.131Z,29.58
2022-08-22T14:25:45.981Z,29.39
2022-08-22T14:28:27.831Z,29.20
2022-08-22T14:31:14.417Z,28.99
2022-08-22T14:33:51.266Z,28.87
2022-08-22T14:36:30.255Z,28.83
2022-08-22T14:39:11.868Z,28.79
2022-08-22T14:41:56.285Z,28.93
2022-08-22T14:44:42.328Z,29.05
2022-08-22T14:47:54.233Z,28.85
2022-08-22T14:50:32.617Z,28.71
2022-08-22T14:53:22.169Z,28.71
2022-08-22T14:56:15.703Z,28.54
2022-08-22T14:58:58.703Z,28.59
2022-08-22T15:01:29.683Z,28.59
2022-08-22T15:04:07.917Z,28.46
2022-08-22T15:06:57.901Z,28.42
2022-08-22T15:09:42.708Z,28.43
2022-08-22T15:12:35.570Z,28.50
2022-08-22T15:15:14.513Z,28.54
2022-08-22T15:17:44.801Z,28.50
2022-08-22T15:20:12.122Z,28.48
2022-08-22T15:22:41.285Z,28.51
2022-08-22T15:25:17.323Z,28.69
2022-08-22T15:27:49.753Z,28.86
2022-08-22T15:30:20.449Z,28.83
2022-08-22T15:32:49.139Z,28.64
2022-08-22T15:35:31.671Z,28.53
2022-08-22T15:38:02.023Z,28.59
2022-08-22T15:40:31.748Z,28.58
2022-08-22T15:43:26.301Z,28.56
2022-08-22T15:46:25.954Z,28.55
2022-08-22T15:49:22.736Z,28.51
2022-08-22T15:51:58.770Z,28.48
2022-08-22T15:54:53.141Z,28.44
2022-08-22T15:57:28.526Z,28.78
2022-08-22T16:00:01.184Z,28.80
2022-08-22T16:02:53.620Z,28.91
2022-08-22T16:05:50.831Z,28.88
2022-08-22T16:08:23.736Z,28.77
2022-08-22T16:11:14.583Z,28.72
2022-08-22T16:13:44.404Z,28.80
2022-08-22T16:16:25.857Z,28.85
2022-08-22T16:18:52.330Z,28.69
2022-08-22T16:21:39.255Z,28.59
2022-08-22T16:24:06.003Z,28.51
2022-08-22T16:26:41.516Z,28.37
2022-08-22T16:29:14.774Z,28.33
2022-08-22T16:31:44.432Z,28.27
2022-08-22T16:34:16.909Z,28.19
2022-08-22T16:37:05.486Z,28.11
2022-08-22T16:39:58.430Z,28.07
2022-08-22T16:42:27.063Z,28.00
2022-08-22T16:45:05.661Z,27.98
2022-08-22T16:47:41.494Z,27.87
2022-08-22T16:50:23.542Z,27.82
2022-08-22T16:53:13.857Z,27.67
2022-08-22T16:55:47.412Z,27.73
2022-08-22T16:58:16.612Z,27.71
2022-08-22T17:00:43.075Z,27.70
2022-08-22T17:03:32.372Z,27.60
2022-08-22T17:06:14.006Z,27.50
2022-08-22T17:08:40.548Z,27.46
2022-08-22T17:11:15.932Z,27.41
2022-08-22T17:13:50.515Z,27.35
2022-08-22T17:16:41.628Z,27.30
2022-08-22T17:19:17.532Z,27.31
2022-08-22T17:22:04.609Z,27.27
2022-08-22T17:24:40.825Z,27.21
2022-08-22T17:27:15.875Z,27.23
2022-08-22T17:30:01.246Z,27.16
2022-08-22T17:32:37.914Z,27.09
2022-08-22T17:35:42.542Z,26.98
2022-08-22T17:38:17.923Z,26.96
2022-08-22T17:41:13.726Z,26.88
2022-08-22T17:43:55.279Z,26.84
2022-08-22T17:46:44.661Z,26.60
2022-08-22T17:49:11.141Z,26.64
2022-08-22T17:51:55.452Z,26.59
2022-08-22T17:54:36.916Z,26.50
2022-08-22T17:57:20.672Z,26.42
2022-08-22T17:59:54.260Z,26.30
2022-08-22T18:02:32.654Z,26.20
2022-08-22T18:05:23.440Z,26.13
2022-08-22T18:11:38.954Z,25.91
2022-08-22T18:14:18.475Z,25.85
2022-08-22T18:16:49.328Z,25.78
2022-08-22T18:19:51.438Z,25.71
2022-08-22T18:22:20.797Z,25.62
2022-08-22T18:25:13.394Z,25.50
2022-08-22T18:27:50.557Z,25.43
2022-08-22T18:30:24.080Z,25.31
2022-08-22T18:33:09.740Z,25.19
2022-08-22T18:35:55.669Z,25.15
2022-08-22T18:38:34.763Z,25.05
2022-08-22T18:41:19.720Z,24.97
2022-08-22T18:43:50.746Z,24.88
2022-08-22T18:46:26.806Z,24.78
2022-08-22T18:49:14.075Z,24.71
2022-08-22T18:51:41.682Z,24.57
2022-08-22T18:54:08.151Z,24.51
2022-08-22T18:56:54.622Z,24.42
2022-08-22T18:59:59.596Z,24.32
2022-08-22T19:02:55.955Z,24.19
2022-08-22T19:05:37.728Z,24.13
2022-08-22T19:08:33.453Z,24.04
2022-08-22T19:11:13.594Z,23.91
2022-08-22T19:13:42.887Z,23.84
2022-08-22T19:16:32.026Z,23.76
2022-08-22T19:19:03.547Z,23.69
2022-08-22T19:21:52.298Z,23.67
2022-08-22T19:24:28.114Z,23.61
2022-08-22T19:27:21.633Z,23.58
2022-08-22T19:29:48.233Z,23.53
2022-08-22T19:32:46.858Z,23.52
2022-08-22T19:35:25.672Z,23.52
2022-08-22T19:37:56.712Z,23.48
2022-08-22T19:40:46.289Z,23.48
2022-08-22T19:43:29.473Z,23.50
2022-08-22T19:46:03.695Z,23.51
2022-08-22T19:48:52.561Z,23.45
2022-08-22T19:51:19.059Z,23.43
2022-08-22T19:54:18.468Z,23.39
2022-08-22T19:57:18.563Z,23.37
2022-08-22T20:00:08.536Z,23.35
2022-08-22T20:03:01.964Z,23.33
2022-08-22T20:05:58.645Z,23.32
2022-08-22T20:08:46.727Z,23.34
2022-08-22T20:11:19.484Z,23.34
2022-08-22T20:13:46.176Z,23.33
2022-08-22T20:16:43.249Z,23.36
2022-08-22T20:19:09.977Z,23.38
2022-08-22T20:21:43.438Z,23.38
2022-08-22T20:24:16.495Z,23.29
2022-08-22T20:27:09.954Z,23.31
2022-08-22T20:29:37.232Z,23.24
2022-08-22T20:32:06.427Z,23.24
2022-08-22T20:34:39.382Z,23.28
2022-08-22T20:37:29.479Z,23.27
2022-08-22T20:40:55.975Z,23.24
2022-08-22T20:43:32.230Z,23.22
2022-08-22T20:46:27.550Z,23.24
2022-08-22T20:48:56.280Z,23.22
2022-08-22T20:51:26.023Z,23.23
2022-08-22T20:53:56.940Z,23.22
2022-08-22T20:56:53.053Z,23.17
2022-08-22T20:59:31.806Z,23.14
2022-08-22T21:02:18.135Z,23.06
2022-08-22T21:05:10.892Z,23.03
2022-08-22T21:07:43.915Z,22.95
2022-08-22T21:10:43.349Z,22.95
2022-08-22T21:13:16.568Z,22.88
2022-08-22T21:15:46.524Z,22.71
2022-08-22T21:18:25.604Z,22.76
2022-08-22T21:20:52.170Z,22.68
2022-08-22T21:23:21.124Z,22.62
2022-08-22T21:26:04.721Z,22.57
2022-08-22T21:28:36.991Z,22.53
2022-08-22T21:31:14.006Z,22.49
2022-08-22T21:33:43.837Z,22.45
2022-08-22T21:36:13.295Z,22.38
2022-08-22T21:38:45.848Z,22.28
2022-08-22T21:41:15.181Z,22.20
2022-08-22T21:43:48.120Z,22.17
2022-08-22T21:46:26.244Z,22.10
2022-08-22T21:49:03.785Z,22.06
2022-08-22T21:51:40.770Z,22.01
2022-08-22T21:54:25.664Z,21.91
2022-08-22T21:57:13.697Z,21.88
2022-08-22T21:59:50.622Z,21.80
2022-08-22T22:02:40.177Z,21.71
2022-08-22T22:05:15.009Z,21.69
2022-08-22T22:07:46.490Z,21.66
2022-08-22T22:10:16.850Z,21.58
2022-08-22T22:12:46.313Z,21.58
2022-08-22T22:15:15.982Z,21.54
2022-08-22T22:17:43.327Z,21.46
2022-08-22T22:20:13.764Z,21.47
2022-08-22T22:22:46.084Z,21.42
2022-08-22T22:25:40.127Z,21.37
2022-08-22T22:28:10.812Z,21.34
2022-08-22T22:30:37.486Z,21.27
2022-08-22T22:33:04.264Z,21.25
2022-08-22T22:35:31.475Z,21.19
2022-08-22T22:37:58.095Z,21.13
2022-08-22T22:40:27.726Z,21.03
2022-08-22T22:42:54.329Z,21.05
2022-08-22T22:45:20.922Z,20.99
2022-08-22T22:47:47.567Z,20.97
2022-08-22T22:50:14.210Z,20.93
2022-08-22T22:52:43.053Z,20.89
2022-08-22T22:55:10.245Z,20.85
2022-08-22T22:57:44.058Z,20.82
2022-08-22T23:00:14.114Z,20.78
2022-08-22T23:02:41.282Z,20.74
2022-08-22T23:05:09.716Z,20.71
2022-08-22T23:07:37.574Z,20.64
2022-08-22T23:10:06.932Z,20.63
2022-08-22T23:12:35.875Z,20.59
2022-08-22T23:15:03.040Z,20.56
2022-08-22T23:17:29.660Z,20.51
2022-08-22T23:19:58.866Z,20.49
2022-08-22T23:22:25.729Z,20.46
2022-08-22T23:24:52.339Z,20.44
2022-08-22T23:27:19.250Z,20.41
2022-08-22T23:29:45.796Z,20.39
2022-08-22T23:32:13.075Z,20.31
2022-08-22T23:34:46.128Z,20.33
2022-08-22T23:37:16.364Z,20.28
2022-08-22T23:39:43.334Z,20.25
2022-08-22T23:42:10.672Z,20.26
2022-08-22T23:44:38.936Z,20.20
2022-08-22T23:47:06.831Z,20.17
2022-08-22T23:49:36.452Z,20.14
2022-08-22T23:52:08.650Z,20.07
2022-08-22T23:54:35.245Z,19.98
2022-08-22T23:57:12.124Z,20.02
2022-08-22T23:59:46.320Z,19.91
